sensor_id;sensor_type;location;lat;lon;timestamp;pressure;altitude;pressure_sealevel;temperature;humidity
63395;BME280;49531;-34.520;150.798;2023-04-06T00:00:34;100610.03;;;24.10;55.31
63395;BME280;49531;-34.520;150.798;2023-04-06T00:03:01;100607.84;;;24.12;55.23
63395;BME280;49531;-34.520;150.798;2023-04-06T00:05:29;100635.03;;;24.22;54.99
63395;BME280;49531;-34.520;150.798;2023-04-06T00:07:58;100627.66;;;24.22;55.44
63395;BME280;49531;-34.520;150.798;2023-04-06T00:10:25;100612.19;;;24.13;55.22
63395;BME280;49531;-34.520;150.798;2023-04-06T00:12:53;100617.59;;;24.18;55.20
63395;BME280;49531;-34.520;150.798;2023-04-06T00:15:20;100623.31;;;24.21;55.04
63395;BME280;49531;-34.520;150.798;2023-04-06T00:17:47;100612.72;;;24.15;55.15
63395;BME280;49531;-34.520;150.798;2023-04-06T00:20:15;100616.75;;;24.22;55.23
63395;BME280;49531;-34.520;150.798;2023-04-06T00:22:43;100620.28;;;24.28;54.93
63395;BME280;49531;-34.520;150.798;2023-04-06T00:25:10;100609.34;;;24.28;55.10
63395;BME280;49531;-34.520;150.798;2023-04-06T00:27:38;100621.34;;;24.32;54.75
63395;BME280;49531;-34.520;150.798;2023-04-06T00:30:06;100600.66;;;24.21;55.09
63395;BME280;49531;-34.520;150.798;2023-04-06T00:32:34;100610.38;;;24.37;54.96
63395;BME280;49531;-34.520;150.798;2023-04-06T00:35:03;100610.56;;;24.41;54.70
63395;BME280;49531;-34.520;150.798;2023-04-06T00:37:31;100601.50;;;24.45;54.54
63395;BME280;49531;-34.520;150.798;2023-04-06T00:39:58;100609.31;;;24.57;54.32
63395;BME280;49531;-34.520;150.798;2023-04-06T00:42:25;100599.78;;;24.54;54.02
63395;BME280;49531;-34.520;150.798;2023-04-06T00:44:53;100597.56;;;24.56;53.99
63395;BME280;49531;-34.520;150.798;2023-04-06T00:47:21;100606.41;;;24.72;54.06
63395;BME280;49531;-34.520;150.798;2023-04-06T00:49:49;100584.91;;;24.66;53.72
63395;BME280;49531;-34.520;150.798;2023-04-06T00:52:16;100580.16;;;24.76;53.40
63395;BME280;49531;-34.520;150.798;2023-04-06T00:54:44;100586.84;;;24.84;53.50
63395;BME280;49531;-34.520;150.798;2023-04-06T00:57:12;100586.28;;;24.87;53.37
63395;BME280;49531;-34.520;150.798;2023-04-06T00:59:39;100578.59;;;24.89;53.59
63395;BME280;49531;-34.520;150.798;2023-04-06T01:02:07;100560.13;;;24.81;53.72
63395;BME280;49531;-34.520;150.798;2023-04-06T01:04:35;100566.56;;;24.90;53.78
63395;BME280;49531;-34.520;150.798;2023-04-06T01:07:02;100556.50;;;24.85;53.62
63395;BME280;49531;-34.520;150.798;2023-04-06T01:09:30;100565.97;;;24.93;53.58
63395;BME280;49531;-34.520;150.798;2023-04-06T01:11:58;100571.16;;;24.94;53.29
63395;BME280;49531;-34.520;150.798;2023-04-06T01:14:26;100551.28;;;24.89;53.33
63395;BME280;49531;-34.520;150.798;2023-04-06T01:16:53;100563.25;;;24.93;53.49
63395;BME280;49531;-34.520;150.798;2023-04-06T01:19:21;100565.69;;;24.94;53.37
63395;BME280;49531;-34.520;150.798;2023-04-06T01:21:49;100555.03;;;24.93;53.42
63395;BME280;49531;-34.520;150.798;2023-04-06T01:24:19;100561.00;;;25.00;53.26
63395;BME280;49531;-34.520;150.798;2023-04-06T01:26:47;100557.44;;;25.00;53.24
63395;BME280;49531;-34.520;150.798;2023-04-06T01:29:14;100533.69;;;24.95;53.22
63395;BME280;49531;-34.520;150.798;2023-04-06T01:31:41;100545.94;;;25.03;53.58
63395;BME280;49531;-34.520;150.798;2023-04-06T01:34:08;100542.38;;;25.02;52.38
63395;BME280;49531;-34.520;150.798;2023-04-06T01:36:36;100528.97;;;24.82;52.57
63395;BME280;49531;-34.520;150.798;2023-04-06T01:39:03;100535.91;;;24.93;52.41
63395;BME280;49531;-34.520;150.798;2023-04-06T01:41:30;100543.31;;;24.92;52.99
63395;BME280;49531;-34.520;150.798;2023-04-06T01:43:57;100531.25;;;24.93;52.48
63395;BME280;49531;-34.520;150.798;2023-04-06T01:46:28;100525.56;;;24.90;52.95
63395;BME280;49531;-34.520;150.798;2023-04-06T01:48:55;100525.25;;;24.97;52.28
63395;BME280;49531;-34.520;150.798;2023-04-06T01:51:22;100522.78;;;24.95;52.52
63395;BME280;49531;-34.520;150.798;2023-04-06T01:53:50;100520.59;;;24.97;52.41
63395;BME280;49531;-34.520;150.798;2023-04-06T01:56:17;100521.09;;;24.99;52.17
63395;BME280;49531;-34.520;150.798;2023-04-06T01:58:44;100497.63;;;24.98;52.10
63395;BME280;49531;-34.520;150.798;2023-04-06T02:01:11;100513.94;;;25.03;52.61
63395;BME280;49531;-34.520;150.798;2023-04-06T02:03:38;100510.63;;;25.06;51.00
63395;BME280;49531;-34.520;150.798;2023-04-06T02:06:06;100511.38;;;25.12;51.11
63395;BME280;49531;-34.520;150.798;2023-04-06T02:08:33;100512.19;;;25.12;52.00
63395;BME280;49531;-34.520;150.798;2023-04-06T02:11:00;100504.28;;;25.11;51.89
63395;BME280;49531;-34.520;150.798;2023-04-06T02:13:27;100480.81;;;24.86;52.33
63395;BME280;49531;-34.520;150.798;2023-04-06T02:15:54;100504.19;;;24.97;52.80
63395;BME280;49531;-34.520;150.798;2023-04-06T02:18:21;100483.03;;;24.84;52.86
63395;BME280;49531;-34.520;150.798;2023-04-06T02:20:48;100497.84;;;25.02;52.41
63395;BME280;49531;-34.520;150.798;2023-04-06T02:23:16;100480.63;;;25.01;52.08
63395;BME280;49531;-34.520;150.798;2023-04-06T02:25:43;100484.63;;;25.09;52.43
63395;BME280;49531;-34.520;150.798;2023-04-06T02:28:10;100472.75;;;25.00;52.66
63395;BME280;49531;-34.520;150.798;2023-04-06T02:30:37;100487.06;;;25.10;52.94
63395;BME280;49531;-34.520;150.798;2023-04-06T02:33:04;100466.25;;;24.96;53.08
63395;BME280;49531;-34.520;150.798;2023-04-06T02:35:31;100469.34;;;25.08;52.73
63395;BME280;49531;-34.520;150.798;2023-04-06T02:37:58;100461.50;;;25.01;53.24
63395;BME280;49531;-34.520;150.798;2023-04-06T02:40:26;100459.06;;;25.00;53.27
63395;BME280;49531;-34.520;150.798;2023-04-06T02:42:53;100451.09;;;25.03;53.29
63395;BME280;49531;-34.520;150.798;2023-04-06T02:45:20;100444.75;;;25.08;53.11
63395;BME280;49531;-34.520;150.798;2023-04-06T02:47:47;100439.78;;;25.10;53.16
63395;BME280;49531;-34.520;150.798;2023-04-06T02:50:14;100444.97;;;25.11;53.24
63395;BME280;49531;-34.520;150.798;2023-04-06T02:52:42;100441.63;;;25.14;53.81
63395;BME280;49531;-34.520;150.798;2023-04-06T02:55:09;100436.75;;;25.11;54.08
63395;BME280;49531;-34.520;150.798;2023-04-06T02:57:36;100434.03;;;25.11;54.10
63395;BME280;49531;-34.520;150.798;2023-04-06T03:00:03;100424.94;;;25.16;54.62
63395;BME280;49531;-34.520;150.798;2023-04-06T03:02:30;100433.44;;;25.14;54.42
63395;BME280;49531;-34.520;150.798;2023-04-06T03:04:57;100432.63;;;25.14;55.13
63395;BME280;49531;-34.520;150.798;2023-04-06T03:07:24;100418.22;;;25.08;54.26
63395;BME280;49531;-34.520;150.798;2023-04-06T03:09:52;100423.81;;;25.17;54.03
63395;BME280;49531;-34.520;150.798;2023-04-06T03:12:19;100419.06;;;25.22;54.24
63395;BME280;49531;-34.520;150.798;2023-04-06T03:14:46;100417.44;;;25.21;54.00
63395;BME280;49531;-34.520;150.798;2023-04-06T03:17:14;100399.22;;;25.17;53.97
63395;BME280;49531;-34.520;150.798;2023-04-06T03:19:41;100401.66;;;25.18;54.32
63395;BME280;49531;-34.520;150.798;2023-04-06T03:22:08;100401.25;;;25.25;55.02
63395;BME280;49531;-34.520;150.798;2023-04-06T03:24:35;100387.28;;;25.26;54.60
63395;BME280;49531;-34.520;150.798;2023-04-06T03:27:02;100392.31;;;25.19;55.04
63395;BME280;49531;-34.520;150.798;2023-04-06T03:29:29;100385.16;;;25.23;54.85
63395;BME280;49531;-34.520;150.798;2023-04-06T03:31:57;100369.47;;;25.15;54.36
63395;BME280;49531;-34.520;150.798;2023-04-06T03:34:24;100377.16;;;25.13;53.90
63395;BME280;49531;-34.520;150.798;2023-04-06T03:36:51;100377.53;;;25.20;53.86
63395;BME280;49531;-34.520;150.798;2023-04-06T03:39:18;100364.22;;;25.19;53.36
63395;BME280;49531;-34.520;150.798;2023-04-06T03:41:46;100369.03;;;25.22;53.95
63395;BME280;49531;-34.520;150.798;2023-04-06T03:44:13;100357.94;;;25.18;54.05
63395;BME280;49531;-34.520;150.798;2023-04-06T03:46:41;100356.91;;;25.14;54.12
63395;BME280;49531;-34.520;150.798;2023-04-06T03:49:08;100366.00;;;25.23;53.91
63395;BME280;49531;-34.520;150.798;2023-04-06T03:51:35;100369.25;;;25.25;53.75
63395;BME280;49531;-34.520;150.798;2023-04-06T03:54:02;100341.41;;;25.23;53.29
63395;BME280;49531;-34.520;150.798;2023-04-06T03:56:30;100345.16;;;25.27;53.32
63395;BME280;49531;-34.520;150.798;2023-04-06T03:58:57;100345.47;;;25.26;53.14
63395;BME280;49531;-34.520;150.798;2023-04-06T04:01:24;100350.03;;;25.31;53.32
63395;BME280;49531;-34.520;150.798;2023-04-06T04:03:51;100343.97;;;25.34;52.91
63395;BME280;49531;-34.520;150.798;2023-04-06T04:06:18;100343.66;;;25.35;52.52
63395;BME280;49531;-34.520;150.798;2023-04-06T04:08:45;100332.94;;;25.39;52.57
63395;BME280;49531;-34.520;150.798;2023-04-06T04:11:12;100338.31;;;25.44;52.30
63395;BME280;49531;-34.520;150.798;2023-04-06T04:13:41;100326.34;;;25.40;52.26
63395;BME280;49531;-34.520;150.798;2023-04-06T04:16:09;100318.84;;;25.32;52.35
63395;BME280;49531;-34.520;150.798;2023-04-06T04:18:36;100332.31;;;25.42;52.28
63395;BME280;49531;-34.520;150.798;2023-04-06T04:21:03;100324.63;;;25.44;51.71
63395;BME280;49531;-34.520;150.798;2023-04-06T04:23:31;100321.41;;;25.42;51.72
63395;BME280;49531;-34.520;150.798;2023-04-06T04:25:58;100309.44;;;25.38;51.70
63395;BME280;49531;-34.520;150.798;2023-04-06T04:28:25;100315.41;;;25.40;52.15
63395;BME280;49531;-34.520;150.798;2023-04-06T04:30:52;100315.81;;;25.47;51.55
63395;BME280;49531;-34.520;150.798;2023-04-06T04:33:19;100309.84;;;25.45;51.46
63395;BME280;49531;-34.520;150.798;2023-04-06T04:35:46;100306.59;;;25.43;51.38
63395;BME280;49531;-34.520;150.798;2023-04-06T04:38:13;100295.16;;;25.41;51.48
63395;BME280;49531;-34.520;150.798;2023-04-06T04:40:40;100302.25;;;25.42;51.49
63395;BME280;49531;-34.520;150.798;2023-04-06T04:43:07;100288.97;;;25.35;51.48
63395;BME280;49531;-34.520;150.798;2023-04-06T04:45:34;100306.50;;;25.48;51.45
63395;BME280;49531;-34.520;150.798;2023-04-06T04:48:01;100301.03;;;25.48;51.15
63395;BME280;49531;-34.520;150.798;2023-04-06T04:50:28;100295.78;;;25.51;50.87
63395;BME280;49531;-34.520;150.798;2023-04-06T04:52:56;100288.88;;;25.54;51.13
63395;BME280;49531;-34.520;150.798;2023-04-06T04:55:23;100294.66;;;25.52;50.89
63395;BME280;49531;-34.520;150.798;2023-04-06T04:57:50;100285.94;;;25.37;50.88
63395;BME280;49531;-34.520;150.798;2023-04-06T05:00:18;100310.34;;;25.47;51.23
63395;BME280;49531;-34.520;150.798;2023-04-06T05:02:46;100271.75;;;25.21;50.96
63395;BME280;49531;-34.520;150.798;2023-04-06T05:05:13;100292.91;;;25.29;50.72
63395;BME280;49531;-34.520;150.798;2023-04-06T05:07:40;100299.41;;;25.33;50.48
63395;BME280;49531;-34.520;150.798;2023-04-06T05:10:07;100306.50;;;25.34;50.29
63395;BME280;49531;-34.520;150.798;2023-04-06T05:12:35;100295.56;;;25.34;50.08
63395;BME280;49531;-34.520;150.798;2023-04-06T05:15:02;100288.47;;;25.33;50.21
63395;BME280;49531;-34.520;150.798;2023-04-06T05:17:29;100287.06;;;25.36;49.79
63395;BME280;49531;-34.520;150.798;2023-04-06T05:19:56;100285.13;;;25.36;50.42
63395;BME280;49531;-34.520;150.798;2023-04-06T05:22:23;100278.34;;;25.34;50.47
63395;BME280;49531;-34.520;150.798;2023-04-06T05:24:51;100293.75;;;25.43;50.95
63395;BME280;49531;-34.520;150.798;2023-04-06T05:27:18;100281.78;;;25.39;50.66
63395;BME280;49531;-34.520;150.798;2023-04-06T05:29:45;100280.28;;;25.33;50.42
63395;BME280;49531;-34.520;150.798;2023-04-06T05:32:12;100276.53;;;25.29;50.81
63395;BME280;49531;-34.520;150.798;2023-04-06T05:34:39;100272.16;;;25.28;51.47
63395;BME280;49531;-34.520;150.798;2023-04-06T05:37:07;100268.00;;;25.31;51.13
63395;BME280;49531;-34.520;150.798;2023-04-06T05:39:34;100262.66;;;25.25;51.30
63395;BME280;49531;-34.520;150.798;2023-04-06T05:42:04;100262.34;;;25.27;51.65
63395;BME280;49531;-34.520;150.798;2023-04-06T05:44:32;100265.38;;;25.25;51.41
63395;BME280;49531;-34.520;150.798;2023-04-06T05:46:59;100251.63;;;25.17;51.18
63395;BME280;49531;-34.520;150.798;2023-04-06T05:49:27;100241.28;;;25.00;51.43
63395;BME280;49531;-34.520;150.798;2023-04-06T05:51:55;100251.22;;;25.10;51.79
63395;BME280;49531;-34.520;150.798;2023-04-06T05:54:22;100243.31;;;25.08;51.14
63395;BME280;49531;-34.520;150.798;2023-04-06T05:56:49;100246.97;;;25.04;51.07
63395;BME280;49531;-34.520;150.798;2023-04-06T05:59:16;100244.00;;;25.00;50.74
63395;BME280;49531;-34.520;150.798;2023-04-06T06:01:44;100241.88;;;24.97;50.80
63395;BME280;49531;-34.520;150.798;2023-04-06T06:04:11;100237.00;;;24.94;50.71
63395;BME280;49531;-34.520;150.798;2023-04-06T06:06:38;100231.00;;;24.92;50.55
63395;BME280;49531;-34.520;150.798;2023-04-06T06:09:05;100238.78;;;24.85;51.16
63395;BME280;49531;-34.520;150.798;2023-04-06T06:11:32;100241.81;;;24.83;51.80
63395;BME280;49531;-34.520;150.798;2023-04-06T06:13:59;100245.50;;;24.79;51.91
63395;BME280;49531;-34.520;150.798;2023-04-06T06:16:26;100241.13;;;24.78;51.74
63395;BME280;49531;-34.520;150.798;2023-04-06T06:18:54;100233.53;;;24.75;52.31
63395;BME280;49531;-34.520;150.798;2023-04-06T06:21:21;100242.44;;;24.80;52.77
63395;BME280;49531;-34.520;150.798;2023-04-06T06:23:48;100240.13;;;24.87;52.91
63395;BME280;49531;-34.520;150.798;2023-04-06T06:26:16;100243.16;;;24.86;53.00
63395;BME280;49531;-34.520;150.798;2023-04-06T06:28:44;100221.19;;;24.77;53.32
63395;BME280;49531;-34.520;150.798;2023-04-06T06:31:11;100230.91;;;24.83;53.28
63395;BME280;49531;-34.520;150.798;2023-04-06T06:33:38;100239.59;;;24.85;53.80
63395;BME280;49531;-34.520;150.798;2023-04-06T06:36:06;100218.56;;;24.72;53.20
63395;BME280;49531;-34.520;150.798;2023-04-06T06:38:33;100241.53;;;24.85;53.59
63395;BME280;49531;-34.520;150.798;2023-04-06T06:41:00;100242.25;;;24.77;54.11
63395;BME280;49531;-34.520;150.798;2023-04-06T06:43:27;100239.59;;;24.72;53.83
63395;BME280;49531;-34.520;150.798;2023-04-06T06:45:54;100241.22;;;24.73;54.34
63395;BME280;49531;-34.520;150.798;2023-04-06T06:48:21;100233.72;;;24.65;54.52
63395;BME280;49531;-34.520;150.798;2023-04-06T06:50:48;100233.19;;;24.63;54.77
63395;BME280;49531;-34.520;150.798;2023-04-06T06:53:16;100225.09;;;24.57;54.88
63395;BME280;49531;-34.520;150.798;2023-04-06T06:55:43;100223.78;;;24.55;54.96
63395;BME280;49531;-34.520;150.798;2023-04-06T06:58:10;100228.66;;;24.72;54.37
63395;BME280;49531;-34.520;150.798;2023-04-06T07:00:38;100242.75;;;24.92;54.31
63395;BME280;49531;-34.520;150.798;2023-04-06T07:03:05;100239.16;;;24.97;53.95
63395;BME280;49531;-34.520;150.798;2023-04-06T07:05:33;100247.75;;;25.04;53.76
63395;BME280;49531;-34.520;150.798;2023-04-06T07:08:00;100250.41;;;25.09;53.52
63395;BME280;49531;-34.520;150.798;2023-04-06T07:10:27;100242.13;;;25.14;53.27
63395;BME280;49531;-34.520;150.798;2023-04-06T07:12:54;100241.50;;;25.17;53.30
63395;BME280;49531;-34.520;150.798;2023-04-06T07:15:21;100243.13;;;25.18;53.05
63395;BME280;49531;-34.520;150.798;2023-04-06T07:17:48;100227.44;;;25.10;53.41
63395;BME280;49531;-34.520;150.798;2023-04-06T07:20:15;100232.19;;;25.18;53.10
63395;BME280;49531;-34.520;150.798;2023-04-06T07:22:43;100244.13;;;25.22;53.41
63395;BME280;49531;-34.520;150.798;2023-04-06T07:25:11;100222.47;;;25.12;53.27
63395;BME280;49531;-34.520;150.798;2023-04-06T07:27:38;100229.47;;;25.18;52.97
63395;BME280;49531;-34.520;150.798;2023-04-06T07:30:06;100243.72;;;25.29;52.87
63395;BME280;49531;-34.520;150.798;2023-04-06T07:32:34;100247.56;;;25.28;53.04
63395;BME280;49531;-34.520;150.798;2023-04-06T07:35:02;100242.50;;;25.35;52.86
63395;BME280;49531;-34.520;150.798;2023-04-06T07:37:29;100231.97;;;25.29;52.92
63395;BME280;49531;-34.520;150.798;2023-04-06T07:39:56;100233.91;;;25.28;52.74
63395;BME280;49531;-34.520;150.798;2023-04-06T07:42:23;100236.31;;;25.30;52.80
63395;BME280;49531;-34.520;150.798;2023-04-06T07:44:50;100234.91;;;25.32;53.10
63395;BME280;49531;-34.520;150.798;2023-04-06T07:47:17;100228.13;;;25.30;52.62
63395;BME280;49531;-34.520;150.798;2023-04-06T07:49:44;100232.69;;;25.34;52.92
63395;BME280;49531;-34.520;150.798;2023-04-06T07:52:11;100227.50;;;25.33;52.67
63395;BME280;49531;-34.520;150.798;2023-04-06T07:54:47;100237.34;;;25.34;52.79
63395;BME280;49531;-34.520;150.798;2023-04-06T07:57:15;100247.66;;;25.37;52.98
63395;BME280;49531;-34.520;150.798;2023-04-06T07:59:42;100247.06;;;25.40;52.76
63395;BME280;49531;-34.520;150.798;2023-04-06T08:02:09;100232.38;;;25.36;52.56
63395;BME280;49531;-34.520;150.798;2023-04-06T08:04:37;100240.78;;;25.39;52.70
63395;BME280;49531;-34.520;150.798;2023-04-06T08:07:04;100238.84;;;25.40;52.80
63395;BME280;49531;-34.520;150.798;2023-04-06T08:09:31;100233.19;;;25.36;52.39
63395;BME280;49531;-34.520;150.798;2023-04-06T08:11:58;100241.28;;;25.41;52.43
63395;BME280;49531;-34.520;150.798;2023-04-06T08:14:25;100221.25;;;25.32;52.45
63395;BME280;49531;-34.520;150.798;2023-04-06T08:16:52;100229.13;;;25.34;52.77
63395;BME280;49531;-34.520;150.798;2023-04-06T08:19:19;100227.81;;;25.31;52.46
63395;BME280;49531;-34.520;150.798;2023-04-06T08:21:46;100242.41;;;25.40;52.41
63395;BME280;49531;-34.520;150.798;2023-04-06T08:24:14;100242.09;;;25.42;52.79
63395;BME280;49531;-34.520;150.798;2023-04-06T08:26:41;100235.91;;;25.36;52.59
63395;BME280;49531;-34.520;150.798;2023-04-06T08:29:09;100244.53;;;25.43;52.60
63395;BME280;49531;-34.520;150.798;2023-04-06T08:31:36;100241.09;;;25.38;52.62
63395;BME280;49531;-34.520;150.798;2023-04-06T08:34:04;100241.50;;;25.45;52.53
63395;BME280;49531;-34.520;150.798;2023-04-06T08:36:33;100231.25;;;25.37;52.24
63395;BME280;49531;-34.520;150.798;2023-04-06T08:39:01;100240.88;;;25.48;51.79
63395;BME280;49531;-34.520;150.798;2023-04-06T08:41:28;100238.25;;;25.43;52.12
63395;BME280;49531;-34.520;150.798;2023-04-06T08:43:58;100240.47;;;25.41;52.22
63395;BME280;49531;-34.520;150.798;2023-04-06T08:46:26;100236.63;;;25.42;52.14
63395;BME280;49531;-34.520;150.798;2023-04-06T08:48:57;100236.63;;;25.42;52.11
63395;BME280;49531;-34.520;150.798;2023-04-06T08:51:26;100221.84;;;25.29;51.92
63395;BME280;49531;-34.520;150.798;2023-04-06T08:53:54;100215.78;;;25.32;52.09
63395;BME280;49531;-34.520;150.798;2023-04-06T08:56:23;100229.75;;;25.44;51.40
63395;BME280;49531;-34.520;150.798;2023-04-06T08:58:50;100239.38;;;25.42;51.60
63395;BME280;49531;-34.520;150.798;2023-04-06T09:01:21;100226.91;;;25.36;51.73
63395;BME280;49531;-34.520;150.798;2023-04-06T09:03:50;100229.44;;;25.32;51.89
63395;BME280;49531;-34.520;150.798;2023-04-06T09:06:18;100245.94;;;25.41;51.52
63395;BME280;49531;-34.520;150.798;2023-04-06T09:08:46;100249.78;;;25.40;51.80
63395;BME280;49531;-34.520;150.798;2023-04-06T09:11:16;100243.81;;;25.38;51.81
63395;BME280;49531;-34.520;150.798;2023-04-06T09:13:46;100244.63;;;25.38;51.77
63395;BME280;49531;-34.520;150.798;2023-04-06T09:16:13;100243.50;;;25.39;51.59
63395;BME280;49531;-34.520;150.798;2023-04-06T09:18:41;100242.81;;;25.34;51.49
63395;BME280;49531;-34.520;150.798;2023-04-06T09:21:09;100244.53;;;25.30;51.79
63395;BME280;49531;-34.520;150.798;2023-04-06T09:23:37;100262.75;;;25.34;51.58
63395;BME280;49531;-34.520;150.798;2023-04-06T09:26:10;100260.31;;;25.33;51.63
63395;BME280;49531;-34.520;150.798;2023-04-06T09:28:47;100247.34;;;25.24;51.91
63395;BME280;49531;-34.520;150.798;2023-04-06T09:31:16;100245.22;;;25.21;51.67
63395;BME280;49531;-34.520;150.798;2023-04-06T09:33:45;100260.13;;;25.29;51.73
63395;BME280;49531;-34.520;150.798;2023-04-06T09:36:13;100251.00;;;25.20;51.68
63395;BME280;49531;-34.520;150.798;2023-04-06T09:38:55;100264.34;;;25.21;51.72
63395;BME280;49531;-34.520;150.798;2023-04-06T09:41:26;100260.34;;;25.19;51.85
63395;BME280;49531;-34.520;150.798;2023-04-06T09:44:08;100270.47;;;25.18;51.89
63395;BME280;49531;-34.520;150.798;2023-04-06T09:46:38;100263.97;;;25.14;52.04
63395;BME280;49531;-34.520;150.798;2023-04-06T09:49:06;100245.84;;;25.05;52.09
63395;BME280;49531;-34.520;150.798;2023-04-06T09:51:40;100271.06;;;25.15;51.55
63395;BME280;49531;-34.520;150.798;2023-04-06T09:54:09;100270.03;;;25.11;52.16
63395;BME280;49531;-34.520;150.798;2023-04-06T09:56:46;100260.81;;;25.07;51.97
63395;BME280;49531;-34.520;150.798;2023-04-06T09:59:21;100262.97;;;25.10;51.63
63395;BME280;49531;-34.520;150.798;2023-04-06T10:01:52;100256.47;;;25.06;51.98
63395;BME280;49531;-34.520;150.798;2023-04-06T10:04:37;100261.94;;;25.06;52.16
63395;BME280;49531;-34.520;150.798;2023-04-06T10:07:07;100256.78;;;25.05;51.78
63395;BME280;49531;-34.520;150.798;2023-04-06T10:09:36;100265.38;;;24.98;52.18
63395;BME280;49531;-34.520;150.798;2023-04-06T10:12:04;100255.31;;;24.93;52.20
63395;BME280;49531;-34.520;150.798;2023-04-06T10:14:35;100274.06;;;25.00;52.13
63395;BME280;49531;-34.520;150.798;2023-04-06T10:17:04;100275.78;;;24.96;52.56
63395;BME280;49531;-34.520;150.798;2023-04-06T10:19:41;100271.78;;;24.75;52.60
63395;BME280;49531;-34.520;150.798;2023-04-06T10:22:11;100277.91;;;24.67;52.97
63395;BME280;49531;-34.520;150.798;2023-04-06T10:24:42;100278.00;;;24.62;52.65
63395;BME280;49531;-34.520;150.798;2023-04-06T10:27:09;100274.75;;;24.59;52.94
63395;BME280;49531;-34.520;150.798;2023-04-06T10:29:43;100279.63;;;24.63;52.79
63395;BME280;49531;-34.520;150.798;2023-04-06T10:32:11;100282.56;;;24.66;52.76
63395;BME280;49531;-34.520;150.798;2023-04-06T10:34:39;100278.00;;;24.62;52.56
63395;BME280;49531;-34.520;150.798;2023-04-06T10:37:16;100270.50;;;24.53;52.41
63395;BME280;49531;-34.520;150.798;2023-04-06T10:39:51;100277.41;;;24.65;52.61
63395;BME280;49531;-34.520;150.798;2023-04-06T10:42:25;100284.72;;;24.69;52.49
63395;BME280;49531;-34.520;150.798;2023-04-06T10:44:52;100285.09;;;24.63;52.72
63395;BME280;49531;-34.520;150.798;2023-04-06T10:47:19;100294.59;;;24.65;52.46
63395;BME280;49531;-34.520;150.798;2023-04-06T10:49:46;100282.44;;;24.57;52.32
63395;BME280;49531;-34.520;150.798;2023-04-06T10:52:13;100289.75;;;24.62;52.32
63395;BME280;49531;-34.520;150.798;2023-04-06T10:54:42;100280.81;;;24.56;52.80
63395;BME280;49531;-34.520;150.798;2023-04-06T10:57:10;100284.66;;;24.55;52.59
63395;BME280;49531;-34.520;150.798;2023-04-06T10:59:42;100275.22;;;24.48;52.49
63395;BME280;49531;-34.520;150.798;2023-04-06T11:02:19;100282.59;;;24.47;52.46
63395;BME280;49531;-34.520;150.798;2023-04-06T11:04:56;100269.53;;;24.44;52.44
63395;BME280;49531;-34.520;150.798;2023-04-06T11:07:24;100285.84;;;24.49;52.44
63395;BME280;49531;-34.520;150.798;2023-04-06T11:09:52;100299.41;;;24.54;52.55
63395;BME280;49531;-34.520;150.798;2023-04-06T11:12:24;100286.34;;;24.51;52.38
63395;BME280;49531;-34.520;150.798;2023-04-06T11:14:57;100282.66;;;24.42;52.69
63395;BME280;49531;-34.520;150.798;2023-04-06T11:17:31;100294.31;;;24.48;52.77
63395;BME280;49531;-34.520;150.798;2023-04-06T11:19:59;100298.47;;;24.45;52.60
63395;BME280;49531;-34.520;150.798;2023-04-06T11:22:26;100290.56;;;24.44;52.66
63395;BME280;49531;-34.520;150.798;2023-04-06T11:25:05;100282.66;;;24.42;52.48
63395;BME280;49531;-34.520;150.798;2023-04-06T11:27:34;100287.13;;;24.38;52.18
63395;BME280;49531;-34.520;150.798;2023-04-06T11:30:02;100274.59;;;24.37;52.38
63395;BME280;49531;-34.520;150.798;2023-04-06T11:32:29;100271.88;;;24.37;52.67
63395;BME280;49531;-34.520;150.798;2023-04-06T11:34:58;100249.88;;;24.29;52.66
63395;BME280;49531;-34.520;150.798;2023-04-06T11:37:26;100268.63;;;24.35;52.56
63395;BME280;49531;-34.520;150.798;2023-04-06T11:39:55;100268.41;;;24.32;52.75
63395;BME280;49531;-34.520;150.798;2023-04-06T11:42:24;100270.03;;;24.33;52.62
63395;BME280;49531;-34.520;150.798;2023-04-06T11:44:54;100263.88;;;24.22;52.71
63395;BME280;49531;-34.520;150.798;2023-04-06T11:47:28;100266.88;;;24.20;52.53
63395;BME280;49531;-34.520;150.798;2023-04-06T11:50:04;100275.31;;;24.24;52.58
63395;BME280;49531;-34.520;150.798;2023-04-06T11:52:32;100255.53;;;24.13;52.67
63395;BME280;49531;-34.520;150.798;2023-04-06T11:55:09;100260.41;;;24.16;52.74
63395;BME280;49531;-34.520;150.798;2023-04-06T11:57:36;100255.75;;;24.17;52.40
63395;BME280;49531;-34.520;150.798;2023-04-06T12:00:04;100265.84;;;24.16;52.65
63395;BME280;49531;-34.520;150.798;2023-04-06T12:02:31;100244.53;;;24.00;52.72
63395;BME280;49531;-34.520;150.798;2023-04-06T12:04:58;100259.59;;;24.16;52.49
63395;BME280;49531;-34.520;150.798;2023-04-06T12:07:25;100248.81;;;24.06;52.67
63395;BME280;49531;-34.520;150.798;2023-04-06T12:09:52;100261.81;;;24.14;52.62
63395;BME280;49531;-34.520;150.798;2023-04-06T12:12:20;100265.41;;;24.09;52.35
63395;BME280;49531;-34.520;150.798;2023-04-06T12:14:47;100255.59;;;24.08;52.44
63395;BME280;49531;-34.520;150.798;2023-04-06T12:17:14;100258.34;;;24.08;52.62
63395;BME280;49531;-34.520;150.798;2023-04-06T12:19:41;100247.78;;;24.02;52.54
63395;BME280;49531;-34.520;150.798;2023-04-06T12:22:08;100227.00;;;23.87;52.64
63395;BME280;49531;-34.520;150.798;2023-04-06T12:24:35;100253.47;;;24.05;52.62